sensor_id;sensor_type;location;lat;lon;timestamp;pressure;altitude;pressure_sealevel;temperature;humidity
58534;BME280;44109;52.398;7.024;2023-09-18T00:02:02;100556.94;;;18.46;100.00
58534;BME280;44109;52.398;7.024;2023-09-18T00:04:30;100569.13;;;18.60;100.00
58534;BME280;44109;52.398;7.024;2023-09-18T00:06:58;100562.66;;;18.63;100.00
58534;BME280;44109;52.398;7.024;2023-09-18T00:09:27;100553.34;;;18.66;100.00
58534;BME280;44109;52.398;7.024;2023-09-18T00:11:54;100546.53;;;18.67;100.00
58534;BME280;44109;52.398;7.024;2023-09-18T00:14:22;100546.44;;;18.70;100.00
58534;BME280;44109;52.398;7.024;2023-09-18T00:16:50;100539.63;;;18.71;100.00
58534;BME280;44109;52.398;7.024;2023-09-18T00:19:18;100536.38;;;18.73;100.00
58534;BME280;44109;52.398;7.024;2023-09-18T00:21:45;100542.34;;;18.75;100.00
58534;BME280;44109;52.398;7.024;2023-09-18T00:24:13;100521.59;;;18.69;100.00
58534;BME280;44109;52.398;7.024;2023-09-18T00:26:42;100534.28;;;18.77;100.00
58534;BME280;44109;52.398;7.024;2023-09-18T00:29:12;100531.03;;;18.79;100.00
58534;BME280;44109;52.398;7.024;2023-09-18T00:31:39;100523.41;;;18.79;100.00
58534;BME280;44109;52.398;7.024;2023-09-18T00:34:07;100513.72;;;18.80;100.00
58534;BME280;44109;52.398;7.024;2023-09-18T00:36:34;100516.91;;;18.82;100.00
58534;BME280;44109;52.398;7.024;2023-09-18T00:39:02;100510.00;;;18.87;100.00
58534;BME280;44109;52.398;7.024;2023-09-18T00:41:30;100508.69;;;18.91;100.00
58534;BME280;44109;52.398;7.024;2023-09-18T00:43:59;100510.28;;;18.92;100.00
58534;BME280;44109;52.398;7.024;2023-09-18T00:46:27;100507.47;;;18.92;100.00
58534;BME280;44109;52.398;7.024;2023-09-18T00:48:55;100500.19;;;18.95;100.00
58534;BME280;44109;52.398;7.024;2023-09-18T00:51:22;100495.34;;;18.95;100.00
58534;BME280;44109;52.398;7.024;2023-09-18T00:53:50;100487.34;;;18.94;100.00
58534;BME280;44109;52.398;7.024;2023-09-18T00:56:18;100468.03;;;18.96;100.00
58534;BME280;44109;52.398;7.024;2023-09-18T00:58:47;100454.78;;;18.96;100.00
58534;BME280;44109;52.398;7.024;2023-09-18T01:01:18;100448.63;;;19.01;100.00
58534;BME280;44109;52.398;7.024;2023-09-18T01:03:49;100443.72;;;19.06;100.00
58534;BME280;44109;52.398;7.024;2023-09-18T01:06:19;100428.44;;;19.07;100.00
58534;BME280;44109;52.398;7.024;2023-09-18T01:08:47;100422.09;;;19.02;100.00
58534;BME280;44109;52.398;7.024;2023-09-18T01:11:26;100443.47;;;19.16;100.00
58534;BME280;44109;52.398;7.024;2023-09-18T01:14:09;100435.84;;;19.17;100.00
58534;BME280;44109;52.398;7.024;2023-09-18T01:16:49;100445.41;;;19.19;100.00
58534;BME280;44109;52.398;7.024;2023-09-18T01:19:40;100439.84;;;19.16;100.00
58534;BME280;44109;52.398;7.024;2023-09-18T01:22:12;100439.78;;;19.19;100.00
58534;BME280;44109;52.398;7.024;2023-09-18T01:24:44;100436.88;;;19.23;100.00
58534;BME280;44109;52.398;7.024;2023-09-18T01:27:14;100440.03;;;19.25;100.00
58534;BME280;44109;52.398;7.024;2023-09-18T01:29:45;100429.41;;;19.16;100.00
58534;BME280;44109;52.398;7.024;2023-09-18T01:32:13;100440.41;;;19.27;100.00
58534;BME280;44109;52.398;7.024;2023-09-18T01:34:44;100427.22;;;19.24;100.00
58534;BME280;44109;52.398;7.024;2023-09-18T01:37:16;100421.84;;;19.30;100.00
58534;BME280;44109;52.398;7.024;2023-09-18T01:39:50;100419.81;;;19.30;100.00
58534;BME280;44109;52.398;7.024;2023-09-18T01:42:19;100421.44;;;19.31;100.00
58534;BME280;44109;52.398;7.024;2023-09-18T01:44:47;100406.28;;;19.25;100.00
58534;BME280;44109;52.398;7.024;2023-09-18T01:47:17;100405.69;;;19.34;100.00
58534;BME280;44109;52.398;7.024;2023-09-18T01:49:46;100402.09;;;19.33;100.00
58534;BME280;44109;52.398;7.024;2023-09-18T01:52:14;100394.44;;;19.34;100.00
58534;BME280;44109;52.398;7.024;2023-09-18T01:54:42;100380.81;;;19.32;100.00
58534;BME280;44109;52.398;7.024;2023-09-18T01:57:11;100365.25;;;19.27;100.00
58534;BME280;44109;52.398;7.024;2023-09-18T01:59:39;100362.78;;;19.30;100.00
58534;BME280;44109;52.398;7.024;2023-09-18T02:02:07;100363.25;;;19.28;100.00
58534;BME280;44109;52.398;7.024;2023-09-18T02:04:36;100363.56;;;19.30;100.00
58534;BME280;44109;52.398;7.024;2023-09-18T02:07:03;100356.38;;;19.29;100.00
58534;BME280;44109;52.398;7.024;2023-09-18T02:09:32;100358.50;;;19.25;100.00
58534;BME280;44109;52.398;7.024;2023-09-18T02:12:00;100349.63;;;19.26;100.00
58534;BME280;44109;52.398;7.024;2023-09-18T02:14:30;100356.03;;;19.27;100.00
58534;BME280;44109;52.398;7.024;2023-09-18T02:16:58;100341.28;;;19.23;100.00
58534;BME280;44109;52.398;7.024;2023-09-18T02:19:26;100338.47;;;19.23;100.00
58534;BME280;44109;52.398;7.024;2023-09-18T02:21:55;100340.56;;;19.19;100.00
58534;BME280;44109;52.398;7.024;2023-09-18T02:24:24;100340.03;;;19.24;100.00
58534;BME280;44109;52.398;7.024;2023-09-18T02:26:52;100339.25;;;19.23;100.00
58534;BME280;44109;52.398;7.024;2023-09-18T02:29:19;100333.19;;;19.25;100.00
58534;BME280;44109;52.398;7.024;2023-09-18T02:31:48;100337.94;;;19.28;100.00
58534;BME280;44109;52.398;7.024;2023-09-18T02:34:16;100327.47;;;19.29;100.00
58534;BME280;44109;52.398;7.024;2023-09-18T02:36:45;100319.81;;;19.29;100.00
58534;BME280;44109;52.398;7.024;2023-09-18T02:39:13;100313.84;;;19.27;100.00
58534;BME280;44109;52.398;7.024;2023-09-18T02:41:41;100316.84;;;19.36;100.00
58534;BME280;44109;52.398;7.024;2023-09-18T02:44:08;100316.75;;;19.40;100.00
58534;BME280;44109;52.398;7.024;2023-09-18T02:46:37;100309.44;;;19.42;100.00
58534;BME280;44109;52.398;7.024;2023-09-18T02:49:06;100307.75;;;19.45;100.00
58534;BME280;44109;52.398;7.024;2023-09-18T02:51:34;100291.66;;;19.45;100.00
58534;BME280;44109;52.398;7.024;2023-09-18T02:54:03;100271.84;;;19.36;100.00
58534;BME280;44109;52.398;7.024;2023-09-18T02:56:30;100289.56;;;19.49;100.00
58534;BME280;44109;52.398;7.024;2023-09-18T02:58:58;100284.25;;;19.51;100.00
58534;BME280;44109;52.398;7.024;2023-09-18T03:01:26;100285.03;;;19.52;100.00
58534;BME280;44109;52.398;7.024;2023-09-18T03:03:53;100284.63;;;19.54;100.00
58534;BME280;44109;52.398;7.024;2023-09-18T03:06:22;100273.69;;;19.56;100.00
58534;BME280;44109;52.398;7.024;2023-09-18T03:08:50;100265.94;;;19.60;100.00
58534;BME280;44109;52.398;7.024;2023-09-18T03:11:17;100257.44;;;19.63;100.00
58534;BME280;44109;52.398;7.024;2023-09-18T03:13:46;100254.97;;;19.65;100.00
58534;BME280;44109;52.398;7.024;2023-09-18T03:16:14;100260.03;;;19.70;100.00
58534;BME280;44109;52.398;7.024;2023-09-18T03:18:42;100250.25;;;19.75;100.00
58534;BME280;44109;52.398;7.024;2023-09-18T03:21:10;100238.13;;;19.78;100.00
58534;BME280;44109;52.398;7.024;2023-09-18T03:23:39;100233.50;;;19.84;100.00
58534;BME280;44109;52.398;7.024;2023-09-18T03:26:06;100225.75;;;19.88;100.00
58534;BME280;44109;52.398;7.024;2023-09-18T03:28:34;100212.44;;;19.89;100.00
58534;BME280;44109;52.398;7.024;2023-09-18T03:31:02;100205.47;;;19.93;100.00
58534;BME280;44109;52.398;7.024;2023-09-18T03:33:31;100192.66;;;19.92;100.00
58534;BME280;44109;52.398;7.024;2023-09-18T03:35:58;100180.59;;;19.92;100.00
58534;BME280;44109;52.398;7.024;2023-09-18T03:38:26;100173.41;;;19.91;100.00
58534;BME280;44109;52.398;7.024;2023-09-18T03:40:55;100167.41;;;19.89;100.00
58534;BME280;44109;52.398;7.024;2023-09-18T03:43:22;100164.16;;;19.90;100.00
58534;BME280;44109;52.398;7.024;2023-09-18T03:45:50;100142.53;;;19.87;100.00
58534;BME280;44109;52.398;7.024;2023-09-18T03:48:18;100136.91;;;19.87;100.00
58534;BME280;44109;52.398;7.024;2023-09-18T03:50:47;100130.38;;;19.90;100.00
58534;BME280;44109;52.398;7.024;2023-09-18T03:53:14;100117.53;;;19.89;100.00
58534;BME280;44109;52.398;7.024;2023-09-18T03:55:43;100117.09;;;19.91;100.00
58534;BME280;44109;52.398;7.024;2023-09-18T03:58:12;100108.56;;;19.94;100.00
58534;BME280;44109;52.398;7.024;2023-09-18T04:00:40;100118.66;;;19.92;100.00
58534;BME280;44109;52.398;7.024;2023-09-18T04:03:09;100106.06;;;19.96;100.00
58534;BME280;44109;52.398;7.024;2023-09-18T04:05:36;100096.38;;;19.97;100.00
58534;BME280;44109;52.398;7.024;2023-09-18T04:08:04;100076.56;;;19.88;100.00
58534;BME280;44109;52.398;7.024;2023-09-18T04:10:32;100081.63;;;19.93;100.00
58534;BME280;44109;52.398;7.024;2023-09-18T04:13:00;100086.03;;;19.94;100.00
58534;BME280;44109;52.398;7.024;2023-09-18T04:15:29;100070.34;;;19.93;100.00
58534;BME280;44109;52.398;7.024;2023-09-18T04:17:57;100069.13;;;19.94;100.00
58534;BME280;44109;52.398;7.024;2023-09-18T04:20:24;100056.84;;;19.88;100.00
58534;BME280;44109;52.398;7.024;2023-09-18T04:23:18;100072.16;;;20.00;100.00
58534;BME280;44109;52.398;7.024;2023-09-18T04:25:47;100086.25;;;20.00;100.00
58534;BME280;44109;52.398;7.024;2023-09-18T04:28:17;100079.81;;;19.99;100.00
58534;BME280;44109;52.398;7.024;2023-09-18T04:30:47;100076.09;;;20.02;100.00
58534;BME280;44109;52.398;7.024;2023-09-18T04:33:15;100070.03;;;20.04;100.00
58534;BME280;44109;52.398;7.024;2023-09-18T04:35:43;100078.34;;;20.08;100.00
58534;BME280;44109;52.398;7.024;2023-09-18T04:38:11;100083.19;;;20.07;100.00
58534;BME280;44109;52.398;7.024;2023-09-18T04:40:40;100069.78;;;20.11;100.00
58534;BME280;44109;52.398;7.024;2023-09-18T04:43:08;100071.81;;;20.11;100.00
58534;BME280;44109;52.398;7.024;2023-09-18T04:45:36;100062.34;;;20.05;100.00
58534;BME280;44109;52.398;7.024;2023-09-18T04:48:05;100060.53;;;20.11;100.00
58534;BME280;44109;52.398;7.024;2023-09-18T04:50:34;100060.22;;;20.09;100.00
58534;BME280;44109;52.398;7.024;2023-09-18T04:53:02;100040.81;;;20.11;100.00
58534;BME280;44109;52.398;7.024;2023-09-18T04:55:30;100033.50;;;20.13;100.00
58534;BME280;44109;52.398;7.024;2023-09-18T04:57:58;100032.38;;;20.11;100.00
58534;BME280;44109;52.398;7.024;2023-09-18T05:00:26;100026.44;;;20.09;100.00
58534;BME280;44109;52.398;7.024;2023-09-18T05:02:55;100027.53;;;20.11;100.00
58534;BME280;44109;52.398;7.024;2023-09-18T05:05:24;100031.13;;;20.12;100.00
58534;BME280;44109;52.398;7.024;2023-09-18T05:07:52;100019.88;;;20.12;100.00
58534;BME280;44109;52.398;7.024;2023-09-18T05:10:20;100022.69;;;20.12;100.00
58534;BME280;44109;52.398;7.024;2023-09-18T05:12:48;100023.34;;;20.16;100.00
58534;BME280;44109;52.398;7.024;2023-09-18T05:15:16;100034.63;;;20.16;100.00
58534;BME280;44109;52.398;7.024;2023-09-18T05:17:46;100037.78;;;20.18;100.00
58534;BME280;44109;52.398;7.024;2023-09-18T05:20:18;100047.69;;;20.22;100.00
58534;BME280;44109;52.398;7.024;2023-09-18T05:22:47;100054.41;;;20.25;100.00
58534;BME280;44109;52.398;7.024;2023-09-18T05:25:15;100058.47;;;20.24;100.00
58534;BME280;44109;52.398;7.024;2023-09-18T05:27:43;100055.66;;;20.24;100.00
58534;BME280;44109;52.398;7.024;2023-09-18T05:30:12;100067.84;;;20.21;100.00
58534;BME280;44109;52.398;7.024;2023-09-18T05:32:42;100066.38;;;20.16;100.00
58534;BME280;44109;52.398;7.024;2023-09-18T05:35:10;100067.50;;;20.19;100.00
58534;BME280;44109;52.398;7.024;2023-09-18T05:37:38;100046.03;;;19.99;100.00
58534;BME280;44109;52.398;7.024;2023-09-18T05:40:09;100039.84;;;20.05;100.00
58534;BME280;44109;52.398;7.024;2023-09-18T05:42:39;100028.97;;;20.16;100.00
58534;BME280;44109;52.398;7.024;2023-09-18T05:45:10;100016.59;;;20.26;100.00
58534;BME280;44109;52.398;7.024;2023-09-18T05:47:38;100012.59;;;20.36;100.00
58534;BME280;44109;52.398;7.024;2023-09-18T05:50:07;100023.28;;;20.41;100.00
58534;BME280;44109;52.398;7.024;2023-09-18T05:52:41;100021.38;;;20.38;100.00
58534;BME280;44109;52.398;7.024;2023-09-18T05:55:11;100031.38;;;20.39;100.00
58534;BME280;44109;52.398;7.024;2023-09-18T05:57:38;100058.22;;;20.44;100.00
58534;BME280;44109;52.398;7.024;2023-09-18T06:00:07;100063.63;;;20.38;100.00
58534;BME280;44109;52.398;7.024;2023-09-18T06:02:39;100058.09;;;20.47;100.00
58534;BME280;44109;52.398;7.024;2023-09-18T06:05:07;100068.56;;;20.47;100.00
58534;BME280;44109;52.398;7.024;2023-09-18T06:07:37;100068.94;;;20.49;100.00
58534;BME280;44109;52.398;7.024;2023-09-18T06:10:06;100065.75;;;20.47;100.00
58534;BME280;44109;52.398;7.024;2023-09-18T06:12:38;100076.00;;;20.54;100.00
58534;BME280;44109;52.398;7.024;2023-09-18T06:15:06;100081.97;;;20.56;100.00
58534;BME280;44109;52.398;7.024;2023-09-18T06:17:37;100074.56;;;20.49;100.00
58534;BME280;44109;52.398;7.024;2023-09-18T06:20:07;100058.31;;;20.53;100.00
58534;BME280;44109;52.398;7.024;2023-09-18T06:22:36;100058.06;;;20.60;100.00
58534;BME280;44109;52.398;7.024;2023-09-18T06:25:06;100031.72;;;20.41;100.00
58534;BME280;44109;52.398;7.024;2023-09-18T06:27:37;100062.31;;;20.65;100.00
58534;BME280;44109;52.398;7.024;2023-09-18T06:30:06;100047.69;;;20.57;100.00
58534;BME280;44109;52.398;7.024;2023-09-18T06:32:35;100062.66;;;20.67;100.00
58534;BME280;44109;52.398;7.024;2023-09-18T06:35:04;100062.97;;;20.69;100.00
58534;BME280;44109;52.398;7.024;2023-09-18T06:37:32;100080.88;;;20.75;100.00
58534;BME280;44109;52.398;7.024;2023-09-18T06:40:00;100081.09;;;20.81;100.00
58534;BME280;44109;52.398;7.024;2023-09-18T06:42:30;100077.22;;;20.87;100.00
58534;BME280;44109;52.398;7.024;2023-09-18T06:44:59;100082.84;;;20.87;100.00
58534;BME280;44109;52.398;7.024;2023-09-18T06:47:27;100073.81;;;20.92;100.00
58534;BME280;44109;52.398;7.024;2023-09-18T06:49:55;100084.50;;;20.97;100.00
58534;BME280;44109;52.398;7.024;2023-09-18T06:52:22;100078.41;;;20.99;100.00
58534;BME280;44109;52.398;7.024;2023-09-18T06:54:51;100082.97;;;21.06;100.00
58534;BME280;44109;52.398;7.024;2023-09-18T06:57:19;100084.91;;;21.09;100.00
58534;BME280;44109;52.398;7.024;2023-09-18T06:59:47;100066.66;;;21.00;100.00
58534;BME280;44109;52.398;7.024;2023-09-18T07:02:16;100091.84;;;21.17;100.00
58534;BME280;44109;52.398;7.024;2023-09-18T07:04:44;100087.16;;;21.23;100.00
58534;BME280;44109;52.398;7.024;2023-09-18T07:07:12;100093.41;;;21.18;100.00
58534;BME280;44109;52.398;7.024;2023-09-18T07:09:40;100089.16;;;21.35;100.00
58534;BME280;44109;52.398;7.024;2023-09-18T07:12:08;100095.78;;;21.41;100.00
58534;BME280;44109;52.398;7.024;2023-09-18T07:14:36;100089.41;;;21.50;100.00
58534;BME280;44109;52.398;7.024;2023-09-18T07:17:04;100107.28;;;21.56;100.00
58534;BME280;44109;52.398;7.024;2023-09-18T07:19:33;100098.94;;;21.52;100.00
58534;BME280;44109;52.398;7.024;2023-09-18T07:22:01;100097.38;;;21.51;100.00
58534;BME280;44109;52.398;7.024;2023-09-18T07:24:29;100096.19;;;21.62;100.00
58534;BME280;44109;52.398;7.024;2023-09-18T07:26:56;100087.91;;;21.67;100.00
58534;BME280;44109;52.398;7.024;2023-09-18T07:29:25;100078.06;;;21.72;100.00
58534;BME280;44109;52.398;7.024;2023-09-18T07:31:52;100090.59;;;21.80;100.00
58534;BME280;44109;52.398;7.024;2023-09-18T07:34:20;100084.00;;;21.74;100.00
58534;BME280;44109;52.398;7.024;2023-09-18T07:36:49;100105.84;;;21.83;100.00
58534;BME280;44109;52.398;7.024;2023-09-18T07:39:20;100094.41;;;21.86;100.00
58534;BME280;44109;52.398;7.024;2023-09-18T07:41:48;100102.41;;;21.88;100.00
58534;BME280;44109;52.398;7.024;2023-09-18T07:44:19;100106.63;;;21.83;100.00
58534;BME280;44109;52.398;7.024;2023-09-18T07:46:46;100121.72;;;21.89;100.00
58534;BME280;44109;52.398;7.024;2023-09-18T07:49:14;100128.63;;;21.97;100.00
58534;BME280;44109;52.398;7.024;2023-09-18T07:51:43;100129.75;;;22.00;100.00
58534;BME280;44109;52.398;7.024;2023-09-18T07:54:15;100127.59;;;22.04;100.00
58534;BME280;44109;52.398;7.024;2023-09-18T07:56:43;100124.28;;;22.06;100.00
58534;BME280;44109;52.398;7.024;2023-09-18T07:59:10;100122.31;;;22.15;100.00
58534;BME280;44109;52.398;7.024;2023-09-18T08:01:41;100123.09;;;22.25;100.00
58534;BME280;44109;52.398;7.024;2023-09-18T08:04:08;100118.91;;;22.48;100.00
58534;BME280;44109;52.398;7.024;2023-09-18T08:06:36;100144.56;;;22.81;100.00
58534;BME280;44109;52.398;7.024;2023-09-18T08:09:04;100142.06;;;23.20;100.00
58534;BME280;44109;52.398;7.024;2023-09-18T08:11:33;100132.00;;;23.10;100.00
58534;BME280;44109;52.398;7.024;2023-09-18T08:14:02;100135.91;;;23.40;100.00
58534;BME280;44109;52.398;7.024;2023-09-18T08:16:30;100137.81;;;23.24;100.00
58534;BME280;44109;52.398;7.024;2023-09-18T08:18:57;100152.66;;;23.71;100.00
58534;BME280;44109;52.398;7.024;2023-09-18T08:21:26;100129.69;;;23.78;100.00
58534;BME280;44109;52.398;7.024;2023-09-18T08:23:55;100129.28;;;24.03;100.00
58534;BME280;44109;52.398;7.024;2023-09-18T08:26:23;100151.63;;;24.01;100.00
58534;BME280;44109;52.398;7.024;2023-09-18T08:28:52;100141.59;;;23.91;100.00
58534;BME280;44109;52.398;7.024;2023-09-18T08:31:20;100111.88;;;23.87;100.00
58534;BME280;44109;52.398;7.024;2023-09-18T08:33:48;100137.94;;;24.00;100.00
58534;BME280;44109;52.398;7.024;2023-09-18T08:36:16;100120.31;;;23.96;100.00
58534;BME280;44109;52.398;7.024;2023-09-18T08:38:43;100125.16;;;24.04;100.00
58534;BME280;44109;52.398;7.024;2023-09-18T08:41:12;100138.59;;;24.28;100.00
58534;BME280;44109;52.398;7.024;2023-09-18T08:43:42;100113.75;;;24.23;100.00
58534;BME280;44109;52.398;7.024;2023-09-18T08:46:12;100125.56;;;24.21;100.00
58534;BME280;44109;52.398;7.024;2023-09-18T08:48:41;100128.81;;;24.29;100.00
58534;BME280;44109;52.398;7.024;2023-09-18T08:51:10;100105.16;;;24.41;100.00
58534;BME280;44109;52.398;7.024;2023-09-18T08:53:39;100119.09;;;24.54;100.00
58534;BME280;44109;52.398;7.024;2023-09-18T08:56:07;100121.34;;;24.65;100.00
58534;BME280;44109;52.398;7.024;2023-09-18T08:58:37;100105.91;;;24.66;100.00
58534;BME280;44109;52.398;7.024;2023-09-18T09:01:08;100102.19;;;24.60;100.00
58534;BME280;44109;52.398;7.024;2023-09-18T09:03:42;100109.00;;;24.53;100.00
58534;BME280;44109;52.398;7.024;2023-09-18T09:06:12;100144.03;;;24.65;100.00
58534;BME280;44109;52.398;7.024;2023-09-18T09:08:40;100137.47;;;24.83;100.00
58534;BME280;44109;52.398;7.024;2023-09-18T09:11:07;100150.88;;;24.58;100.00
58534;BME280;44109;52.398;7.024;2023-09-18T09:13:35;100157.50;;;24.55;100.00
58534;BME280;44109;52.398;7.024;2023-09-18T09:16:03;100158.06;;;24.44;100.00
58534;BME280;44109;52.398;7.024;2023-09-18T09:18:30;100141.66;;;24.48;100.00
58534;BME280;44109;52.398;7.024;2023-09-18T09:21:01;100125.47;;;24.64;100.00
58534;BME280;44109;52.398;7.024;2023-09-18T09:23:46;100130.66;;;24.41;100.00
58534;BME280;44109;52.398;7.024;2023-09-18T09:26:18;100135.66;;;24.46;100.00
58534;BME280;44109;52.398;7.024;2023-09-18T09:28:47;100135.13;;;24.24;100.00
58534;BME280;44109;52.398;7.024;2023-09-18T09:31:26;100130.19;;;24.10;100.00
58534;BME280;44109;52.398;7.024;2023-09-18T09:33:55;100125.25;;;24.19;100.00
58534;BME280;44109;52.398;7.024;2023-09-18T09:36:25;100149.41;;;24.39;100.00
58534;BME280;44109;52.398;7.024;2023-09-18T09:38:55;100147.97;;;24.43;100.00
58534;BME280;44109;52.398;7.024;2023-09-18T09:41:24;100146.72;;;24.44;100.00
58534;BME280;44109;52.398;7.024;2023-09-18T09:43:53;100138.69;;;24.34;100.00
58534;BME280;44109;52.398;7.024;2023-09-18T09:46:22;100138.56;;;24.61;100.00
58534;BME280;44109;52.398;7.024;2023-09-18T09:48:58;100155.38;;;24.65;100.00
58534;BME280;44109;52.398;7.024;2023-09-18T09:51:28;100162.00;;;24.71;100.00
58534;BME280;44109;52.398;7.024;2023-09-18T09:53:57;100156.59;;;24.73;100.00
58534;BME280;44109;52.398;7.024;2023-09-18T09:56:43;100147.81;;;24.71;100.00
58534;BME280;44109;52.398;7.024;2023-09-18T09:59:13;100130.16;;;24.91;100.00
58534;BME280;44109;52.398;7.024;2023-09-18T10:01:42;100125.78;;;25.04;100.00
58534;BME280;44109;52.398;7.024;2023-09-18T10:04:12;100128.75;;;25.25;100.00
58534;BME280;44109;52.398;7.024;2023-09-18T10:06:47;100135.59;;;25.33;100.00
58534;BME280;44109;52.398;7.024;2023-09-18T10:09:19;100150.50;;;25.43;100.00
58534;BME280;44109;52.398;7.024;2023-09-18T10:11:51;100147.19;;;25.05;100.00
58534;BME280;44109;52.398;7.024;2023-09-18T10:14:29;100140.03;;;24.95;100.00
58534;BME280;44109;52.398;7.024;2023-09-18T10:17:01;100145.13;;;25.30;100.00
58534;BME280;44109;52.398;7.024;2023-09-18T10:19:43;100146.41;;;25.44;100.00
58534;BME280;44109;52.398;7.024;2023-09-18T10:22:23;100163.34;;;25.53;100.00
58534;BME280;44109;52.398;7.024;2023-09-18T10:25:02;100164.59;;;25.37;100.00
58534;BME280;44109;52.398;7.024;2023-09-18T10:27:36;100180.84;;;25.51;100.00
58534;BME280;44109;52.398;7.024;2023-09-18T10:30:09;100179.84;;;25.25;100.00
58534;BME280;44109;52.398;7.024;2023-09-18T10:32:39;100173.50;;;25.06;100.00
58534;BME280;44109;52.398;7.024;2023-09-18T10:35:07;100187.38;;;24.89;100.00
58534;BME280;44109;52.398;7.024;2023-09-18T10:37:41;100166.84;;;24.94;100.00
58534;BME280;44109;52.398;7.024;2023-09-18T10:40:10;100179.91;;;24.77;100.00
58534;BME280;44109;52.398;7.024;2023-09-18T10:42:40;100174.66;;;24.85;100.00
58534;BME280;44109;52.398;7.024;2023-09-18T10:45:11;100186.03;;;24.99;100.00
58534;BME280;44109;52.398;7.024;2023-09-18T10:47:43;100191.47;;;24.88;100.00
58534;BME280;44109;52.398;7.024;2023-09-18T10:50:22;100204.94;;;24.54;100.00
58534;BME280;44109;52.398;7.024;2023-09-18T10:52:53;100193.94;;;24.47;100.00
58534;BME280;44109;52.398;7.024;2023-09-18T10:55:21;100201.66;;;24.47;100.00
58534;BME280;44109;52.398;7.024;2023-09-18T10:57:51;100195.75;;;24.26;100.00
58534;BME280;44109;52.398;7.024;2023-09-18T11:00:19;100191.38;;;24.59;100.00
58534;BME280;44109;52.398;7.024;2023-09-18T11:02:51;100191.47;;;24.88;100.00
58534;BME280;44109;52.398;7.024;2023-09-18T11:05:29;100183.50;;;25.01;100.00
58534;BME280;44109;52.398;7.024;2023-09-18T11:08:27;100183.00;;;25.27;100.00
58534;BME280;44109;52.398;7.024;2023-09-18T11:10:58;100184.63;;;25.19;100.00
58534;BME280;44109;52.398;7.024;2023-09-18T11:13:33;100173.91;;;24.99;100.00
58534;BME280;44109;52.398;7.024;2023-09-18T11:16:13;100176.03;;;24.89;100.00
58534;BME280;44109;52.398;7.024;2023-09-18T11:18:47;100177.59;;;24.90;100.00
58534;BME280;44109;52.398;7.024;2023-09-18T11:21:23;100185.78;;;24.88;100.00
58534;BME280;44109;52.398;7.024;2023-09-18T11:24:01;100185.03;;;25.02;100.00
58534;BME280;44109;52.398;7.024;2023-09-18T11:26:30;100185.03;;;25.02;100.00
58534;BME280;44109;52.398;7.024;2023-09-18T11:28:59;100183.97;;;25.24;100.00
58534;BME280;44109;52.398;7.024;2023-09-18T11:31:41;100191.19;;;25.25;100.00
58534;BME280;44109;52.398;7.024;2023-09-18T11:34:15;100194.53;;;25.23;100.00
58534;BME280;44109;52.398;7.024;2023-09-18T11:36:48;100198.06;;;25.33;100.00
58534;BME280;44109;52.398;7.024;2023-09-18T11:39:35;100194.56;;;24.99;100.00
58534;BME280;44109;52.398;7.024;2023-09-18T11:42:09;100216.09;;;25.06;100.00
58534;BME280;44109;52.398;7.024;2023-09-18T11:44:37;100207.84;;;25.17;100.00
58534;BME280;44109;52.398;7.024;2023-09-18T11:47:13;100195.13;;;25.27;100.00
58534;BME280;44109;52.398;7.024;2023-09-18T11:49:50;100174.28;;;25.06;100.00
58534;BME280;44109;52.398;7.024;2023-09-18T11:52:21;100193.84;;;24.90;100.00
58534;BME280;44109;52.398;7.024;2023-09-18T11:54:52;100187.00;;;24.96;100.00
58534;BME280;44109;52.398;7.024;2023-09-18T11:57:22;100190.72;;;25.02;100.00
58534;BME280;44109;52.398;7.024;2023-09-18T11:59:51;100179.88;;;25.01;100.00
58534;BME280;44109;52.398;7.024;2023-09-18T12:02:25;100174.38;;;25.21;100.00
58534;BME280;44109;52.398;7.024;2023-09-18T12:04:56;100169.41;;;25.31;100.00
58534;BME280;44109;52.398;7.024;2023-09-18T12:07:24;100160.44;;;25.09;100.00
58534;BME280;44109;52.398;7.024;2023-09-18T12:09:53;100156.34;;;25.10;100.00
58534;BME280;44109;52.398;7.024;2023-09-18T12:12:21;100151.84;;;25.18;100.00
58534;BME280;44109;52.398;7.024;2023-09-18T12:14:52;100153.50;;;25.24;100.00
58534;BME280;44109;52.398;7.024;2023-09-18T12:17:19;100158.72;;;25.41;100.00
58534;BME280;44109;52.398;7.024;2023-09-18T12:19:51;100153.06;;;25.55;100.00
58534;BME280;44109;52.398;7.024;2023-09-18T12:22:23;100154.63;;;25.71;100.00
58534;BME280;44109;52.398;7.024;2023-09-18T12:24:53;100154.06;;;25.82;100.00
58534;BME280;44109;52.398;7.024;2023-09-18T12:27:35;100159.31;;;25.60;100.00
58534;BME280;44109;52.398;7.024;2023-09-18T12:30:04;100161.97;;;25.48;100.00
58534;BME280;44109;52.398;7.024;2023-09-18T12:32:35;100156.06;;;25.52;100.00
58534;BME280;44109;52.398;7.024;2023-09-18T12:35:05;100172.22;;;24.92;100.00
58534;BME280;44109;52.398;7.024;2023-09-18T12:37:34;100184.53;;;24.41;100.00
58534;BME280;44109;52.398;7.024;2023-09-18T12:40:05;100193.22;;;23.86;100.00
58534;BME280;44109;52.398;7.024;2023-09-18T12:42:37;100189.03;;;23.54;100.00
58534;BME280;44109;52.398;7.024;2023-09-18T12:45:08;100187.00;;;23.45;100.00
58534;BME280;44109;52.398;7.024;2023-09-18T12:47:37;100181.97;;;23.49;100.00
58534;BME280;44109;52.398;7.024;2023-09-18T12:50:07;100170.63;;;23.68;100.00
58534;BME280;44109;52.398;7.024;2023-09-18T12:52:36;100177.06;;;23.77;100.00
58534;BME280;44109;52.398;7.024;2023-09-18T12:55:06;100178.16;;;23.80;100.00